createdAt,value
2018-08-24T00:00:56.359Z,4.00
2018-08-24T00:01:56.342Z,4.00
2018-08-24T00:02:56.334Z,4.00
2018-08-24T00:03:56.344Z,4.00
2018-08-24T00:04:56.298Z,4.00
2018-08-24T00:05:56.284Z,4.00
2018-08-24T00:06:56.271Z,4.00
2018-08-24T00:07:56.255Z,4.00
2018-08-24T00:08:56.243Z,4.00
2018-08-24T00:09:56.228Z,4.00
2018-08-24T00:10:56.216Z,4.00
2018-08-24T00:11:56.200Z,4.00
2018-08-24T00:12:56.186Z,4.00
2018-08-24T00:13:56.173Z,4.00
2018-08-24T00:14:56.158Z,4.00
2018-08-24T00:15:56.144Z,4.00
2018-08-24T00:16:56.130Z,4.00
2018-08-24T00:17:56.117Z,4.00
2018-08-24T00:18:56.101Z,4.00
2018-08-24T00:19:56.088Z,4.00
2018-08-24T00:20:56.072Z,4.00
2018-08-24T00:21:56.058Z,4.00
2018-08-24T00:22:56.056Z,4.00
2018-08-24T00:23:56.032Z,4.00
2018-08-24T00:24:56.017Z,4.00
2018-08-24T00:25:56.003Z,4.00
2018-08-24T00:26:55.988Z,4.00
2018-08-24T00:27:55.978Z,4.00
2018-08-24T00:28:55.961Z,4.00
2018-08-24T00:29:55.946Z,4.00
2018-08-24T00:30:55.941Z,4.00
2018-08-24T00:31:55.920Z,4.00
2018-08-24T00:32:55.905Z,4.00
2018-08-24T00:33:55.890Z,4.00
2018-08-24T00:34:55.877Z,4.00
2018-08-24T00:35:55.862Z,4.00
2018-08-24T00:36:55.855Z,4.00
2018-08-24T00:37:55.832Z,4.00
2018-08-24T00:38:55.820Z,4.00
2018-08-24T00:39:55.805Z,4.00
2018-08-24T00:40:55.791Z,4.00
2018-08-24T00:41:55.781Z,4.00
2018-08-24T00:42:55.763Z,4.00
2018-08-24T00:43:55.749Z,4.00
2018-08-24T00:44:55.734Z,4.00
2018-08-24T00:45:55.722Z,4.00
2018-08-24T00:46:55.707Z,4.00
2018-08-24T00:47:55.693Z,4.00
2018-08-24T00:48:55.687Z,4.00
2018-08-24T00:49:55.664Z,4.00
2018-08-24T00:50:55.652Z,4.00
2018-08-24T00:51:55.637Z,4.00
2018-08-24T00:52:55.622Z,4.00
2018-08-24T00:53:55.611Z,4.00
2018-08-24T00:54:55.598Z,4.00
2018-08-24T00:55:55.588Z,4.00
2018-08-24T00:56:55.569Z,4.00
2018-08-24T00:57:55.553Z,4.00
2018-08-24T00:58:55.537Z,4.00
2018-08-24T00:59:55.524Z,4.00
2018-08-24T01:00:55.514Z,4.00
2018-08-24T01:01:55.495Z,4.00
2018-08-24T01:02:55.486Z,4.00
2018-08-24T01:03:56.681Z,4.00
2018-08-24T01:04:55.458Z,4.00
2018-08-24T01:05:55.454Z,4.00
2018-08-24T01:06:55.437Z,4.00
2018-08-24T01:07:55.413Z,4.00
2018-08-24T01:08:55.396Z,4.00
2018-08-24T01:09:55.383Z,4.00
2018-08-24T01:10:55.367Z,4.00
2018-08-24T01:11:55.354Z,4.00
2018-08-24T01:12:55.355Z,4.00
2018-08-24T01:13:55.326Z,4.00
2018-08-24T01:14:55.312Z,4.00
2018-08-24T01:15:55.297Z,4.00
2018-08-24T01:16:55.281Z,4.00
2018-08-24T01:17:55.268Z,4.00
2018-08-24T01:18:55.256Z,4.00
2018-08-24T01:19:55.390Z,4.00
2018-08-24T01:20:55.227Z,4.00
2018-08-24T01:21:55.213Z,4.00
2018-08-24T01:22:55.198Z,4.00
2018-08-24T01:23:55.183Z,4.00
2018-08-24T01:24:55.172Z,4.00
2018-08-24T01:25:55.154Z,4.00
2018-08-24T01:26:55.140Z,4.00
2018-08-24T01:27:55.127Z,4.00
2018-08-24T01:28:55.112Z,4.00
2018-08-24T01:29:55.099Z,4.00
2018-08-24T01:30:55.083Z,4.00
2018-08-24T01:31:55.071Z,4.00
2018-08-24T01:32:55.055Z,4.00
2018-08-24T01:33:55.042Z,4.00
2018-08-24T01:34:55.029Z,4.00
2018-08-24T01:35:55.012Z,4.00
2018-08-24T01:36:54.998Z,4.00
2018-08-24T01:37:54.984Z,4.00
2018-08-24T01:38:54.971Z,4.00
2018-08-24T01:39:54.955Z,4.00
2018-08-24T01:40:54.940Z,4.00
2018-08-24T01:41:54.929Z,4.00
2018-08-24T01:42:54.913Z,4.00
2018-08-24T01:43:54.899Z,4.00
2018-08-24T01:44:54.884Z,4.00
2018-08-24T01:45:54.872Z,4.00
2018-08-24T01:46:54.908Z,4.00
2018-08-24T01:47:54.841Z,4.00
2018-08-24T01:48:54.828Z,4.00
2018-08-24T01:49:54.812Z,4.00
2018-08-24T01:50:54.798Z,4.00
2018-08-24T01:51:54.783Z,4.00
2018-08-24T01:52:54.768Z,4.00
2018-08-24T01:53:54.755Z,4.00
2018-08-24T01:54:54.741Z,4.00
2018-08-24T01:55:54.725Z,4.00
2018-08-24T01:56:54.712Z,4.00
2018-08-24T01:57:54.702Z,4.00
2018-08-24T01:58:54.687Z,4.00
2018-08-24T01:59:54.675Z,4.00
2018-08-24T02:00:54.653Z,4.00
2018-08-24T02:01:54.639Z,4.00
2018-08-24T02:02:54.624Z,4.00
2018-08-24T02:03:54.609Z,4.00
2018-08-24T02:04:54.595Z,4.00
2018-08-24T02:05:54.582Z,4.00
2018-08-24T02:06:54.567Z,4.00
2018-08-24T02:07:54.556Z,4.00
2018-08-24T02:08:54.538Z,4.00
2018-08-24T02:09:54.523Z,4.00
2018-08-24T02:10:54.509Z,4.00
2018-08-24T02:11:54.493Z,4.00
2018-08-24T02:12:54.478Z,4.00
2018-08-24T02:13:54.468Z,4.00
2018-08-24T02:14:54.451Z,4.00
2018-08-24T02:15:54.437Z,4.00
2018-08-24T02:16:54.421Z,4.00
2018-08-24T02:17:54.407Z,4.00
2018-08-24T02:18:54.393Z,4.00
2018-08-24T02:19:54.378Z,4.00
2018-08-24T02:20:54.366Z,4.00
2018-08-24T02:21:54.349Z,4.00
2018-08-24T02:22:54.335Z,4.00
2018-08-24T02:23:54.320Z,4.00
2018-08-24T02:24:54.305Z,4.00
2018-08-24T02:25:54.293Z,4.00
2018-08-24T02:26:54.277Z,4.00
2018-08-24T02:27:54.260Z,4.00
2018-08-24T02:28:54.248Z,4.00
2018-08-24T02:29:54.233Z,4.00
2018-08-24T02:30:54.217Z,4.00
2018-08-24T02:31:54.206Z,4.00
2018-08-24T02:32:54.237Z,4.00
2018-08-24T02:33:54.172Z,4.00
2018-08-24T02:34:54.160Z,4.00
2018-08-24T02:35:54.144Z,4.00
2018-08-24T02:36:54.129Z,4.00
2018-08-24T02:37:54.124Z,4.00
2018-08-24T02:38:54.099Z,4.00
2018-08-24T02:39:54.096Z,4.00
2018-08-24T02:40:54.073Z,4.00
2018-08-24T02:41:54.057Z,4.00
2018-08-24T02:42:54.043Z,4.00
2018-08-24T02:43:54.027Z,4.00
2018-08-24T02:44:54.053Z,4.00
2018-08-24T02:45:53.996Z,4.00
2018-08-24T02:46:53.980Z,4.00
2018-08-24T02:47:53.965Z,4.00
2018-08-24T02:48:53.952Z,4.00
2018-08-24T02:49:53.936Z,4.00
2018-08-24T02:50:53.922Z,4.00
2018-08-24T02:51:53.906Z,4.00
2018-08-24T02:52:53.891Z,4.00
2018-08-24T02:53:53.877Z,4.00
2018-08-24T02:54:53.863Z,4.00
2018-08-24T02:55:53.846Z,4.00
2018-08-24T02:56:53.833Z,4.00
2018-08-24T02:57:53.817Z,4.00
2018-08-24T02:58:53.806Z,4.00
2018-08-24T02:59:53.787Z,4.00
2018-08-24T03:00:53.782Z,4.00
2018-08-24T03:01:53.758Z,4.00
2018-08-24T03:02:53.742Z,4.00
2018-08-24T03:03:53.725Z,4.00
2018-08-24T03:04:53.712Z,4.00
2018-08-24T03:05:53.701Z,4.00
2018-08-24T03:06:53.683Z,4.00
2018-08-24T03:07:53.674Z,4.00
2018-08-24T03:08:53.653Z,4.00
2018-08-24T03:09:53.636Z,4.00
2018-08-24T03:10:53.622Z,4.00
2018-08-24T03:11:53.611Z,4.00
2018-08-24T03:12:53.591Z,4.00
2018-08-24T03:13:53.577Z,4.00
2018-08-24T03:14:53.560Z,4.00
2018-08-24T03:15:53.595Z,4.00
2018-08-24T03:16:53.529Z,4.00
2018-08-24T03:17:53.516Z,4.00
2018-08-24T03:18:53.501Z,4.00
2018-08-24T03:19:53.483Z,4.00
2018-08-24T03:20:53.470Z,4.00
2018-08-24T03:21:53.453Z,4.00
2018-08-24T03:22:53.442Z,4.00
2018-08-24T03:23:53.421Z,4.00
2018-08-24T03:24:53.412Z,4.00
2018-08-24T03:25:53.401Z,4.00
2018-08-24T03:26:53.378Z,4.00
2018-08-24T03:27:53.364Z,4.00
2018-08-24T03:28:53.347Z,4.00
2018-08-24T03:29:53.332Z,4.00
2018-08-24T03:30:53.318Z,4.00
2018-08-24T03:31:53.308Z,4.00
2018-08-24T03:32:53.286Z,4.00
2018-08-24T03:33:53.287Z,4.00
2018-08-24T03:34:53.257Z,4.00
2018-08-24T03:35:53.241Z,4.00
2018-08-24T03:36:53.225Z,4.00
2018-08-24T03:37:53.213Z,4.00
2018-08-24T03:38:53.198Z,4.00
2018-08-24T03:39:53.185Z,4.00
2018-08-24T03:40:53.167Z,4.00
2018-08-24T03:41:53.151Z,4.00
2018-08-24T03:42:53.138Z,4.00
2018-08-24T03:43:53.120Z,4.00
2018-08-24T03:44:53.106Z,4.00
2018-08-24T03:45:53.185Z,4.00
2018-08-24T03:46:53.075Z,4.00
2018-08-24T03:47:53.059Z,4.00
2018-08-24T03:48:53.044Z,4.00
2018-08-24T03:49:53.037Z,4.00
2018-08-24T03:50:53.016Z,4.00
2018-08-24T03:51:52.999Z,8.00
2018-08-24T03:52:53.105Z,8.00
2018-08-24T03:53:52.968Z,4.00
2018-08-24T03:54:52.952Z,4.00
2018-08-24T03:55:52.938Z,4.00
2018-08-24T03:56:52.921Z,4.00
2018-08-24T03:57:52.906Z,4.00
2018-08-24T03:58:52.891Z,4.00
2018-08-24T03:59:52.876Z,8.00
2018-08-24T04:00:52.866Z,8.00
2018-08-24T04:01:52.848Z,8.00
2018-08-24T04:02:52.832Z,12.00
2018-08-24T04:03:52.814Z,12.00
2018-08-24T04:04:52.809Z,8.00
2018-08-24T04:05:52.790Z,12.00
2018-08-24T04:06:52.770Z,16.00
2018-08-24T04:07:52.753Z,16.00
2018-08-24T04:08:52.737Z,20.00
2018-08-24T04:09:52.724Z,28.00
2018-08-24T04:10:52.708Z,32.00
2018-08-24T04:11:52.698Z,36.00
2018-08-24T04:12:52.733Z,32.00
2018-08-24T04:13:52.661Z,40.00
2018-08-24T04:14:52.647Z,44.00
2018-08-24T04:15:52.633Z,48.00
2018-08-24T04:16:52.620Z,60.00
2018-08-24T04:17:52.608Z,64.00
2018-08-24T04:18:52.583Z,72.00
2018-08-24T04:19:52.567Z,80.00
2018-08-24T04:20:52.558Z,84.00
2018-08-24T04:21:52.538Z,92.00
2018-08-24T04:22:52.524Z,96.00
2018-08-24T04:23:52.508Z,84.00
2018-08-24T04:24:52.527Z,96.00
2018-08-24T04:25:52.508Z,108.00
2018-08-24T04:26:52.472Z,124.00
2018-08-24T04:27:52.446Z,132.00
2018-08-24T04:28:52.430Z,152.00
2018-08-24T04:29:52.417Z,160.00
2018-08-24T04:30:52.409Z,180.00
2018-08-24T04:31:52.386Z,204.00
2018-08-24T04:32:52.371Z,236.00
2018-08-24T04:33:52.355Z,268.00
2018-08-24T04:34:52.371Z,292.00
2018-08-24T04:35:52.325Z,352.00
2018-08-24T04:36:52.348Z,416.00
2018-08-24T04:37:52.293Z,448.00
2018-08-24T04:38:52.279Z,452.00
2018-08-24T04:39:52.261Z,480.00
2018-08-24T04:40:52.246Z,556.00
2018-08-24T04:41:52.233Z,640.00
2018-08-24T04:42:52.217Z,696.00
2018-08-24T04:43:52.200Z,752.00
2018-08-24T04:44:52.186Z,804.00
2018-08-24T04:45:52.174Z,844.00
2018-08-24T04:46:52.160Z,876.00
2018-08-24T04:47:52.148Z,896.00
2018-08-24T04:48:52.124Z,900.00
2018-08-24T04:49:52.111Z,896.00
2018-08-24T04:50:52.093Z,888.00
2018-08-24T04:51:52.077Z,884.00
2018-08-24T04:52:52.064Z,876.00
2018-08-24T04:53:52.047Z,872.00
2018-08-24T04:54:52.035Z,872.00
2018-08-24T04:55:52.015Z,876.00
2018-08-24T04:56:52.005Z,888.00
2018-08-24T04:57:51.986Z,904.00
2018-08-24T04:58:51.970Z,912.00
2018-08-24T04:59:51.958Z,928.00
2018-08-24T05:00:51.942Z,944.00
2018-08-24T05:01:51.933Z,972.00
2018-08-24T05:02:51.910Z,992.00
2018-08-24T05:03:51.896Z,1000.00
2018-08-24T05:04:51.880Z,992.00
2018-08-24T05:05:51.985Z,992.00
2018-08-24T05:06:51.851Z,1016.00
2018-08-24T05:07:51.833Z,1048.00
2018-08-24T05:08:51.818Z,1096.00
2018-08-24T05:09:51.801Z,1160.00
2018-08-24T05:10:51.789Z,1240.00
2018-08-24T05:11:51.773Z,1312.00
2018-08-24T05:12:51.761Z,1372.00
2018-08-24T05:13:51.743Z,1420.00
2018-08-24T05:14:51.728Z,1448.00
2018-08-24T05:15:51.711Z,1476.00
2018-08-24T05:16:51.696Z,1508.00
2018-08-24T05:17:51.680Z,1544.00
2018-08-24T05:18:51.664Z,1572.00
2018-08-24T05:19:51.648Z,1612.00
2018-08-24T05:20:51.635Z,1644.00
2018-08-24T05:21:51.620Z,1688.00
2018-08-24T05:22:51.605Z,1716.00
2018-08-24T05:23:51.587Z,1696.00
2018-08-24T05:24:51.678Z,1656.00
2018-08-24T05:25:51.559Z,1608.00
2018-08-24T05:26:51.549Z,1556.00
2018-08-24T05:27:51.527Z,1540.00
2018-08-24T05:28:51.513Z,1556.00
2018-08-24T05:29:51.505Z,1600.00
2018-08-24T05:30:51.516Z,1684.00
2018-08-24T05:31:51.467Z,1804.00
2018-08-24T05:32:51.456Z,1956.00
2018-08-24T05:33:51.439Z,2120.00
2018-08-24T05:34:51.423Z,2252.00
2018-08-24T05:35:51.407Z,2360.00
2018-08-24T05:36:51.391Z,2364.00
2018-08-24T05:37:51.376Z,2392.00
2018-08-24T05:38:51.369Z,2396.00
2018-08-24T05:39:51.344Z,2396.00
2018-08-24T05:40:51.329Z,2424.00
2018-08-24T05:41:51.315Z,2480.00
2018-08-24T05:42:51.309Z,2540.00
2018-08-24T05:43:51.284Z,2604.00
2018-08-24T05:44:51.276Z,2644.00
2018-08-24T05:45:51.254Z,2648.00
2018-08-24T05:46:51.240Z,2660.00
2018-08-24T05:47:51.225Z,2684.00
2018-08-24T05:48:51.273Z,2668.00
2018-08-24T05:49:51.196Z,2632.00
2018-08-24T05:50:51.181Z,2632.00
2018-08-24T05:51:51.164Z,2664.00
2018-08-24T05:52:51.155Z,2708.00
2018-08-24T05:53:51.135Z,2752.00
2018-08-24T05:54:51.118Z,2760.00
2018-08-24T05:55:51.103Z,2720.00
2018-08-24T05:56:51.088Z,2648.00
2018-08-24T05:57:51.074Z,2572.00
2018-08-24T05:58:51.058Z,2500.00
2018-08-24T05:59:51.042Z,2488.00
2018-08-24T06:00:51.038Z,2532.00
2018-08-24T06:01:51.014Z,2672.00
2018-08-24T06:02:51.000Z,2840.00
2018-08-24T06:03:50.987Z,2932.00
2018-08-24T06:04:50.972Z,2920.00
2018-08-24T06:05:50.995Z,2892.00
2018-08-24T06:06:50.947Z,2972.00
2018-08-24T06:07:50.928Z,3232.00
2018-08-24T06:08:50.966Z,3664.00
2018-08-24T06:09:50.894Z,4056.00
2018-08-24T06:10:50.880Z,4464.00
2018-08-24T06:11:50.865Z,4668.00
2018-08-24T06:12:50.850Z,4652.00
2018-08-24T06:13:50.844Z,4800.00
2018-08-24T06:14:50.895Z,4760.00
2018-08-24T06:15:50.882Z,4088.00
2018-08-24T06:16:50.901Z,3804.00
2018-08-24T06:17:50.818Z,3420.00
2018-08-24T06:18:50.763Z,3092.00
2018-08-24T06:19:50.754Z,2548.00
2018-08-24T06:20:50.742Z,1960.00
2018-08-24T06:21:50.724Z,1688.00
2018-08-24T06:22:50.706Z,1440.00
2018-08-24T06:23:50.688Z,1132.00
2018-08-24T06:24:50.677Z,1024.00
2018-08-24T06:25:50.659Z,904.00
2018-08-24T06:26:50.646Z,1188.00
2018-08-24T06:27:50.629Z,1448.00
2018-08-24T06:28:50.617Z,1748.00
2018-08-24T06:29:50.604Z,1848.00
2018-08-24T06:30:50.585Z,2236.00
2018-08-24T06:31:50.569Z,2144.00
2018-08-24T06:32:50.566Z,2268.00
2018-08-24T06:33:50.540Z,2680.00
2018-08-24T06:34:50.527Z,2528.00
2018-08-24T06:35:50.512Z,2240.00
2018-08-24T06:36:50.530Z,1508.00
2018-08-24T06:37:50.482Z,1944.00
2018-08-24T06:38:50.467Z,2364.00
2018-08-24T06:39:50.479Z,2664.00
2018-08-24T06:40:50.437Z,2960.00
2018-08-24T06:41:50.481Z,3032.00
2018-08-24T06:42:50.409Z,2504.00
2018-08-24T06:43:50.392Z,3200.00
2018-08-24T06:44:50.382Z,3532.00
2018-08-24T06:45:50.375Z,3956.00
2018-08-24T06:46:50.348Z,4004.00
2018-08-24T06:47:50.408Z,4044.00
2018-08-24T06:48:50.324Z,4960.00
2018-08-24T06:49:50.314Z,5856.00
2018-08-24T06:50:50.289Z,6748.00
2018-08-24T06:51:50.274Z,7240.00
2018-08-24T06:52:50.260Z,7708.00
2018-08-24T06:53:50.337Z,9384.00
2018-08-24T06:54:50.233Z,9680.00
2018-08-24T06:55:50.216Z,8292.00
2018-08-24T06:56:50.199Z,7852.00
2018-08-24T06:57:50.194Z,6120.00
2018-08-24T06:58:50.177Z,5012.00
2018-08-24T06:59:50.157Z,3540.00
2018-08-24T07:00:50.148Z,3140.00
2018-08-24T07:01:50.127Z,4052.00
2018-08-24T07:02:50.115Z,4308.00
2018-08-24T07:03:50.096Z,3584.00
2018-08-24T07:04:50.083Z,2452.00
2018-08-24T07:05:50.104Z,2212.00
2018-08-24T07:06:50.056Z,1900.00
2018-08-24T07:07:50.041Z,2064.00
2018-08-24T07:08:50.025Z,1556.00
2018-08-24T07:09:50.010Z,1600.00
2018-08-24T07:10:50.006Z,2104.00
2018-08-24T07:11:49.982Z,2364.00
2018-08-24T07:12:49.998Z,2892.00
2018-08-24T07:13:49.965Z,2004.00
2018-08-24T07:14:49.938Z,3516.00
2018-08-24T07:15:49.922Z,4308.00
2018-08-24T07:16:49.908Z,2980.00
2018-08-24T07:17:49.891Z,2080.00
2018-08-24T07:18:49.880Z,2524.00
2018-08-24T07:19:49.866Z,3944.00
2018-08-24T07:20:49.848Z,4892.00
2018-08-24T07:21:49.835Z,4732.00
2018-08-24T07:22:49.821Z,5080.00
2018-08-24T07:23:49.805Z,4256.00
2018-08-24T07:24:49.789Z,5320.00
2018-08-24T07:25:49.775Z,5840.00
2018-08-24T07:26:49.762Z,6184.00
2018-08-24T07:27:49.745Z,5644.00
2018-08-24T07:28:49.731Z,7016.00
2018-08-24T07:29:49.716Z,6152.00
2018-08-24T07:30:49.705Z,5760.00
2018-08-24T07:31:49.688Z,7576.00
2018-08-24T07:32:49.678Z,7280.00
2018-08-24T07:33:49.660Z,6248.00
2018-08-24T07:34:49.643Z,6148.00
2018-08-24T07:35:49.637Z,7456.00
2018-08-24T07:36:49.616Z,7188.00
2018-08-24T07:37:49.601Z,6916.00
2018-08-24T07:38:49.592Z,7164.00
2018-08-24T07:39:49.569Z,7048.00
2018-08-24T07:40:49.564Z,6916.00
2018-08-24T07:41:49.636Z,6904.00
2018-08-24T07:42:49.545Z,6892.00
2018-08-24T07:43:49.514Z,6972.00
2018-08-24T07:44:49.515Z,6948.00
2018-08-24T07:45:49.504Z,6960.00
2018-08-24T07:46:49.472Z,7320.00
2018-08-24T07:47:49.455Z,7476.00
2018-08-24T07:48:49.440Z,7388.00
2018-08-24T07:49:49.427Z,6472.00
2018-08-24T07:50:49.483Z,6232.00
2018-08-24T07:51:49.407Z,7532.00
2018-08-24T07:52:49.385Z,7468.00
2018-08-24T07:53:49.469Z,7748.00
2018-08-24T07:54:49.355Z,7452.00
2018-08-24T07:55:49.345Z,6624.00
2018-08-24T07:56:49.339Z,6804.00
2018-08-24T07:57:49.311Z,5240.00
2018-08-24T07:58:49.314Z,4524.00
2018-08-24T07:59:49.282Z,5600.00
2018-08-24T08:00:49.282Z,4416.00
2018-08-24T08:01:49.257Z,4900.00
2018-08-24T08:02:49.246Z,5328.00
2018-08-24T08:03:49.237Z,3796.00
2018-08-24T08:04:49.216Z,3584.00
2018-08-24T08:05:49.194Z,3920.00
2018-08-24T08:06:49.184Z,4380.00
2018-08-24T08:07:49.167Z,3904.00
2018-08-24T08:08:49.152Z,2564.00
2018-08-24T08:09:49.138Z,2568.00
2018-08-24T08:10:49.124Z,3008.00
2018-08-24T08:11:49.260Z,3572.00
2018-08-24T08:12:49.091Z,4380.00
2018-08-24T08:13:49.079Z,5164.00
2018-08-24T08:14:49.064Z,5784.00
2018-08-24T08:15:49.048Z,6812.00
2018-08-24T08:16:49.036Z,7740.00
2018-08-24T08:17:49.026Z,8424.00
2018-08-24T08:18:49.005Z,8888.00
2018-08-24T08:19:48.990Z,9064.00
2018-08-24T08:20:48.977Z,9200.00
2018-08-24T08:21:48.968Z,9196.00
2018-08-24T08:22:48.963Z,8884.00
2018-08-24T08:23:48.945Z,9132.00
2018-08-24T08:24:49.069Z,9364.00
2018-08-24T08:25:48.910Z,9420.00
2018-08-24T08:26:48.889Z,9804.00
2018-08-24T08:27:48.875Z,11228.00
2018-08-24T08:28:48.860Z,12836.00
2018-08-24T08:29:48.863Z,13492.00
2018-08-24T08:30:48.847Z,13840.00
2018-08-24T08:31:48.818Z,15052.00
2018-08-24T08:32:48.805Z,15572.00
2018-08-24T08:33:48.795Z,16692.00
2018-08-24T08:34:48.779Z,15564.00
2018-08-24T08:35:48.767Z,13424.00
2018-08-24T08:36:48.750Z,11260.00
2018-08-24T08:37:48.734Z,10432.00
2018-08-24T08:38:48.735Z,11236.00
2018-08-24T08:39:48.712Z,12076.00
2018-08-24T08:40:48.694Z,12352.00
2018-08-24T08:41:48.687Z,12696.00
2018-08-24T08:42:48.666Z,14156.00
2018-08-24T08:43:48.654Z,15508.00
2018-08-24T08:44:48.647Z,18272.00
2018-08-24T08:45:48.628Z,19456.00
2018-08-24T08:46:48.741Z,20928.00
2018-08-24T08:47:48.600Z,20544.00
2018-08-24T08:48:48.584Z,21856.00
2018-08-24T08:49:48.626Z,23840.00
2018-08-24T08:50:48.560Z,24352.00
2018-08-24T08:51:48.544Z,21952.00
2018-08-24T08:52:48.531Z,22112.00
2018-08-24T08:53:48.517Z,21888.00
2018-08-24T08:54:48.505Z,21440.00
2018-08-24T08:55:48.491Z,21344.00
2018-08-24T08:56:48.486Z,23104.00
2018-08-24T08:57:48.476Z,21600.00
2018-08-24T08:58:48.453Z,20512.00
2018-08-24T08:59:48.446Z,19488.00
2018-08-24T09:00:48.427Z,21024.00
2018-08-24T09:01:48.413Z,22688.00
2018-08-24T09:02:48.482Z,24096.00
2018-08-24T09:03:48.388Z,24864.00
2018-08-24T09:04:48.376Z,25728.00
2018-08-24T09:05:48.371Z,23776.00
2018-08-24T09:06:48.352Z,22912.00
2018-08-24T09:07:48.343Z,23296.00
2018-08-24T09:08:48.325Z,23872.00
2018-08-24T09:09:48.321Z,22656.00
2018-08-24T09:10:48.321Z,22880.00
2018-08-24T09:11:48.291Z,25088.00
2018-08-24T09:12:48.313Z,26912.00
2018-08-24T09:13:48.264Z,28000.00
2018-08-24T09:14:48.253Z,26720.00
2018-08-24T09:15:48.243Z,24992.00
2018-08-24T09:16:48.231Z,25760.00
2018-08-24T09:17:48.220Z,23264.00
2018-08-24T09:18:48.207Z,20928.00
2018-08-24T09:19:48.201Z,17312.00
2018-08-24T09:20:48.186Z,38272.00
2018-08-24T09:21:48.175Z,33824.00
2018-08-24T09:22:48.162Z,21824.00
2018-08-24T09:23:48.229Z,20992.00
2018-08-24T09:24:48.139Z,21440.00
2018-08-24T09:25:48.215Z,20640.00
2018-08-24T09:26:48.115Z,16404.00
2018-08-24T09:27:48.114Z,13744.00
2018-08-24T09:28:48.097Z,11596.00
2018-08-24T09:29:48.085Z,10756.00
2018-08-24T09:30:48.070Z,13016.00
2018-08-24T09:31:48.069Z,14376.00
2018-08-24T09:32:48.088Z,13000.00
2018-08-24T09:33:48.034Z,15848.00
2018-08-24T09:34:48.026Z,12092.00
2018-08-24T09:35:48.016Z,11884.00
2018-08-24T09:36:48.001Z,12404.00
2018-08-24T09:37:47.990Z,11760.00
2018-08-24T09:38:47.980Z,12988.00
2018-08-24T09:39:47.967Z,10792.00
2018-08-24T09:40:47.954Z,10312.00
2018-08-24T09:41:47.948Z,12776.00
2018-08-24T09:42:47.934Z,68864.00
2018-08-24T09:43:47.924Z,67584.00
2018-08-24T09:44:47.912Z,47264.00
2018-08-24T09:45:47.900Z,59264.00
2018-08-24T09:46:47.888Z,77376.00
2018-08-24T09:47:47.879Z,80800.00
2018-08-24T09:48:47.870Z,88256.00
2018-08-24T09:49:48.665Z,78624.00
2018-08-24T09:50:47.850Z,84192.00
2018-08-24T09:51:47.836Z,100800.00
2018-08-24T09:52:47.834Z,91328.00
2018-08-24T09:53:47.819Z,91232.00
2018-08-24T09:54:47.809Z,91584.00
2018-08-24T09:55:47.926Z,89984.00
2018-08-24T09:56:47.840Z,94176.00
2018-08-24T09:57:47.786Z,10244.00
2018-08-24T09:58:47.784Z,84640.00
2018-08-24T09:59:47.772Z,90400.00
2018-08-24T10:00:47.760Z,92160.00
2018-08-24T10:01:47.758Z,93888.00
2018-08-24T10:02:47.762Z,94688.00
2018-08-24T10:03:47.743Z,96704.00
2018-08-24T10:04:47.748Z,100032.00
2018-08-24T10:05:47.732Z,102624.00
2018-08-24T10:06:47.761Z,22272.00
2018-08-24T10:08:31.922Z,60672.00
2018-08-24T10:09:31.914Z,89088.00
2018-08-24T10:10:31.916Z,18240.00
2018-08-24T10:11:31.906Z,18624.00
2018-08-24T10:12:31.934Z,16812.00
2018-08-24T10:14:31.057Z,8096.00
2018-08-24T10:16:04.264Z,6964.00
2018-08-24T10:16:31.052Z,6188.00
2018-08-24T10:17:31.042Z,9272.00
2018-08-24T10:18:31.036Z,89184.00
2018-08-24T10:19:31.038Z,8264.00
2018-08-24T10:20:31.035Z,8720.00
2018-08-24T10:21:31.133Z,95328.00
2018-08-24T10:22:31.010Z,93568.00
2018-08-24T10:23:31.010Z,96096.00
2018-08-24T10:24:31.001Z,92864.00
2018-08-24T10:25:30.990Z,9084.00
2018-08-24T10:26:30.995Z,96448.00
2018-08-24T10:27:31.004Z,97312.00
2018-08-24T10:28:30.979Z,93568.00
2018-08-24T10:29:31.184Z,98016.00
2018-08-24T10:30:30.971Z,93536.00
2018-08-24T10:31:30.957Z,87360.00
2018-08-24T10:32:30.960Z,85024.00
2018-08-24T10:33:30.949Z,90144.00
2018-08-24T10:34:30.954Z,95168.00
2018-08-24T10:35:30.950Z,94112.00
2018-08-24T10:36:30.938Z,91968.00
2018-08-24T10:37:30.946Z,92640.00
2018-08-24T10:38:30.929Z,94976.00
2018-08-24T10:39:30.925Z,96224.00
2018-08-24T10:40:30.939Z,98528.00
2018-08-24T10:41:30.921Z,94784.00
2018-08-24T10:42:30.925Z,89024.00
2018-08-24T10:43:30.916Z,88608.00
2018-08-24T10:44:30.914Z,91328.00
2018-08-24T10:45:30.972Z,90112.00
2018-08-24T10:46:30.911Z,90080.00
2018-08-24T10:47:30.910Z,87680.00
2018-08-24T10:48:30.908Z,86784.00
2018-08-24T10:49:31.025Z,90688.00
2018-08-24T10:50:30.936Z,88640.00
2018-08-24T10:51:30.906Z,85056.00
2018-08-24T10:52:30.911Z,88000.00
2018-08-24T10:53:30.903Z,92736.00
2018-08-24T10:54:30.903Z,93920.00
2018-08-24T10:55:30.912Z,92480.00
2018-08-24T10:56:30.909Z,92000.00
2018-08-24T10:57:30.902Z,91552.00
2018-08-24T10:58:30.968Z,90144.00
2018-08-24T10:59:30.908Z,88160.00
2018-08-24T11:00:30.902Z,86368.00
2018-08-24T11:01:30.905Z,83616.00
2018-08-24T11:02:30.914Z,85696.00
2018-08-24T11:03:30.923Z,91648.00
2018-08-24T11:04:30.907Z,90400.00
2018-08-24T11:05:30.988Z,92864.00
2018-08-24T11:06:30.921Z,41440.00
2018-08-24T11:07:30.959Z,84768.00
2018-08-24T11:08:30.906Z,18976.00
2018-08-24T11:09:30.908Z,39136.00
2018-08-24T11:10:30.913Z,82880.00
2018-08-24T11:11:30.910Z,25792.00
2018-08-24T11:12:30.911Z,19552.00
2018-08-24T11:13:30.908Z,88640.00
2018-08-24T11:14:30.916Z,40896.00
2018-08-24T11:15:30.908Z,85600.00
2018-08-24T11:16:30.908Z,90880.00
2018-08-24T11:17:30.911Z,80288.00
2018-08-24T11:18:30.918Z,11840.00
2018-08-24T11:19:30.908Z,28864.00
2018-08-24T11:20:30.914Z,50496.00
2018-08-24T11:21:30.908Z,86976.00
2018-08-24T11:22:30.906Z,88384.00
2018-08-24T11:23:30.906Z,88384.00
2018-08-24T11:24:30.911Z,85312.00
2018-08-24T11:25:30.919Z,83104.00
2018-08-24T11:26:30.905Z,8424.00
2018-08-24T11:27:30.930Z,10788.00
2018-08-24T11:28:30.927Z,86464.00
2018-08-24T11:29:30.906Z,16116.00
2018-08-24T11:30:30.904Z,17248.00
2018-08-24T11:31:30.899Z,10604.00
2018-08-24T11:32:30.952Z,10908.00
2018-08-24T11:33:30.897Z,85408.00
2018-08-24T11:34:30.927Z,9648.00
2018-08-24T11:35:30.891Z,8784.00
2018-08-24T11:36:30.890Z,11056.00
2018-08-24T11:37:30.884Z,86656.00
2018-08-24T11:38:30.881Z,80576.00
2018-08-24T11:39:30.880Z,79872.00
2018-08-24T11:40:30.873Z,32896.00
2018-08-24T11:41:30.871Z,81152.00
2018-08-24T11:42:30.870Z,71712.00
2018-08-24T11:43:30.865Z,45984.00
2018-08-24T11:44:30.864Z,18368.00
2018-08-24T11:45:30.858Z,12948.00
2018-08-24T11:46:30.863Z,92736.00
2018-08-24T11:47:30.854Z,55040.00
2018-08-24T11:48:30.846Z,23872.00
2018-08-24T11:49:30.852Z,83776.00
2018-08-24T11:50:30.838Z,14672.00
2018-08-24T11:51:30.838Z,20128.00
2018-08-24T11:52:30.837Z,52160.00
2018-08-24T11:53:30.837Z,13708.00
2018-08-24T11:54:30.879Z,9344.00
2018-08-24T11:55:30.812Z,9876.00
2018-08-24T11:56:30.808Z,11704.00
2018-08-24T11:57:33.828Z,10272.00
2018-08-24T11:58:30.807Z,8980.00
2018-08-24T11:59:30.797Z,10616.00
2018-08-24T12:00:30.784Z,13200.00
2018-08-24T12:01:30.778Z,16108.00
2018-08-24T12:02:30.771Z,14844.00
2018-08-24T12:03:30.771Z,13872.00
2018-08-24T12:04:30.757Z,9788.00
2018-08-24T12:05:30.759Z,9424.00
2018-08-24T12:06:30.746Z,10520.00
2018-08-24T12:07:30.748Z,9656.00
2018-08-24T12:08:30.749Z,10376.00
2018-08-24T12:09:30.724Z,9468.00
2018-08-24T12:10:30.717Z,10304.00
2018-08-24T12:11:30.710Z,8904.00
2018-08-24T12:12:30.799Z,8720.00
2018-08-24T12:13:30.694Z,9544.00
2018-08-24T12:14:30.691Z,7096.00
2018-08-24T12:15:30.690Z,8824.00
2018-08-24T12:16:30.678Z,9572.00
2018-08-24T12:17:30.667Z,10508.00
2018-08-24T12:18:30.781Z,9020.00
2018-08-24T12:19:30.648Z,9376.00
2018-08-24T12:20:30.638Z,10632.00
2018-08-24T12:21:30.675Z,11176.00
2018-08-24T12:22:30.620Z,12604.00
2018-08-24T12:23:30.610Z,12492.00
2018-08-24T12:24:30.638Z,12692.00
2018-08-24T12:25:30.594Z,12716.00